Time;durP1;ratioP1;P1;durP2;ratioP2;P2;SDS_P1;SDS_P2;PMS_P1;PMS_P2;Temp;Humidity;BMP_temperature;BMP_pressure;BME280_temperature;BME280_humidity;BME280_pressure;Samples;Min_cycle;Max_cycle;Signal;HPM_P1;HPM_P2
2022/09/01 00:01:51;;;;;;;0.57;0.10;;;22.50;53.70;;;;;;5129700;27;20124;-64
2022/09/01 00:04:25;;;;;;;1.35;0.10;;;22.40;53.70;;;;;;5128593;28;20044;-64
2022/09/01 00:06:53;;;;;;;1.10;0.00;;;22.50;53.70;;;;;;5128178;28;20282;-64
2022/09/01 00:09:21;;;;;;;1.63;0.10;;;22.50;53.70;;;;;;5128422;28;20134;-64
2022/09/01 00:11:51;;;;;;;0.17;0.10;;;22.50;53.70;;;;;;5128129;28;20043;-65
2022/09/01 00:14:20;;;;;;;0.20;0.10;;;22.40;53.70;;;;;;5128449;28;20031;-64
2022/09/01 00:16:45;;;;;;;0.60;0.10;;;22.40;53.70;;;;;;5128074;28;20494;-65
2022/09/01 00:19:11;;;;;;;0.30;0.10;;;22.40;53.70;;;;;;5129389;27;20116;-64
2022/09/01 00:21:40;;;;;;;0.40;0.10;;;22.40;53.70;;;;;;5129095;28;20364;-64
2022/09/01 00:24:06;;;;;;;0.63;0.10;;;22.40;53.70;;;;;;5129484;27;20047;-66
2022/09/01 00:26:32;;;;;;;0.30;0.10;;;22.40;53.70;;;;;;5127535;28;20093;-64
2022/09/01 00:28:58;;;;;;;0.22;0.00;;;22.40;53.70;;;;;;5127850;28;20052;-64
2022/09/01 00:31:24;;;;;;;0.30;0.10;;;22.40;54.40;;;;;;5128969;28;20509;-65
2022/09/01 00:33:50;;;;;;;2.75;0.10;;;22.40;53.70;;;;;;5127753;28;20051;-64
2022/09/01 00:36:17;;;;;;;1.38;0.10;;;22.40;53.70;;;;;;5128918;27;20397;-64
2022/09/01 00:38:44;;;;;;;0.68;0.13;;;22.40;53.70;;;;;;5115086;27;20058;-64
2022/09/01 00:41:10;;;;;;;0.35;0.10;;;22.40;53.70;;;;;;5113914;28;20096;-64
2022/09/01 00:43:55;;;;;;;0.50;0.13;;;22.40;53.70;;;;;;5113937;28;20118;-66
2022/09/01 00:46:26;;;;;;;1.20;0.10;;;22.40;53.70;;;;;;5113851;28;20048;-64
2022/09/01 00:48:58;;;;;;;0.45;0.10;;;22.40;53.70;;;;;;5113752;28;20097;-64
2022/09/01 00:51:24;;;;;;;1.20;0.10;;;22.30;53.60;;;;;;5114979;28;20067;-64
2022/09/01 00:53:51;;;;;;;0.15;0.10;;;22.30;53.70;;;;;;5115406;28;20094;-64
2022/09/01 00:56:17;;;;;;;0.70;0.13;;;22.30;53.60;;;;;;5114903;28;20036;-64
2022/09/01 00:58:43;;;;;;;1.08;0.20;;;22.30;53.60;;;;;;5113511;28;20410;-64
2022/09/01 01:01:09;;;;;;;0.43;0.10;;;22.30;53.60;;;;;;5113826;28;20075;-64
2022/09/01 01:03:35;;;;;;;0.17;0.00;;;22.30;53.60;;;;;;5113663;28;20423;-66
2022/09/01 01:06:07;;;;;;;0.60;0.10;;;22.30;53.60;;;;;;5113461;28;20168;-64
2022/09/01 01:08:37;;;;;;;0.35;0.10;;;22.30;53.60;;;;;;5113326;28;20066;-64
2022/09/01 01:11:07;;;;;;;0.35;0.10;;;22.30;53.60;;;;;;5114668;28;20053;-64
2022/09/01 01:13:53;;;;;;;0.28;0.10;;;22.30;53.60;;;;;;5113551;28;20046;-65
2022/09/01 01:16:21;;;;;;;0.52;0.00;;;22.30;53.60;;;;;;5113198;28;20042;-64
2022/09/01 01:18:46;;;;;;;1.15;0.15;;;22.20;53.50;;;;;;5114669;28;20047;-64
2022/09/01 01:24:25;;;;;;;0.47;0.10;;;22.30;53.60;;;;;;5113066;28;20055;-64
2022/09/01 01:26:51;;;;;;;0.20;0.10;;;22.20;53.50;;;;;;5113973;28;20087;-64
2022/09/01 01:29:17;;;;;;;0.38;0.10;;;22.20;53.50;;;;;;5114228;28;20044;-64
2022/09/01 01:31:43;;;;;;;1.27;0.10;;;22.20;53.50;;;;;;5113247;28;20034;-64
2022/09/01 01:34:09;;;;;;;0.22;0.10;;;22.20;53.50;;;;;;5112855;28;20392;-64
2022/09/01 01:36:37;;;;;;;0.57;0.10;;;22.20;53.50;;;;;;5113140;28;20039;-64
2022/09/01 01:39:10;;;;;;;0.45;0.10;;;22.20;53.50;;;;;;5112777;28;20044;-64
2022/09/01 01:41:39;;;;;;;0.93;0.10;;;22.20;53.50;;;;;;5113040;28;20082;-64
2022/09/01 01:44:10;;;;;;;0.55;0.10;;;22.20;53.50;;;;;;5112824;28;20051;-64
2022/09/01 01:46:41;;;;;;;0.38;0.10;;;22.20;53.50;;;;;;5113856;28;20495;-64
2022/09/01 01:49:08;;;;;;;0.25;0.10;;;22.20;53.50;;;;;;5111782;28;20046;-64
2022/09/01 01:51:33;;;;;;;0.30;0.10;;;22.20;53.50;;;;;;5112632;28;20105;-64
2022/09/01 01:54:04;;;;;;;0.40;0.10;;;22.20;53.50;;;;;;5112424;28;20086;-64
2022/09/01 01:56:31;;;;;;;0.55;0.10;;;22.20;53.50;;;;;;5113945;28;20035;-64
2022/09/01 01:58:58;;;;;;;0.20;0.10;;;22.10;53.40;;;;;;5112370;28;20097;-64
2022/09/01 02:01:27;;;;;;;0.30;0.10;;;22.10;53.40;;;;;;5112675;28;20096;-65
2022/09/01 02:03:55;;;;;;;0.22;0.10;;;22.10;53.40;;;;;;5112570;28;20043;-64
2022/09/01 02:06:24;;;;;;;0.40;0.10;;;22.10;53.40;;;;;;5112226;28;20085;-64
2022/09/01 02:08:55;;;;;;;0.30;0.10;;;22.10;53.40;;;;;;5112340;28;20134;-64
2022/09/01 02:11:21;;;;;;;0.35;0.25;;;22.10;53.40;;;;;;5095778;28;20032;-64
2022/09/01 02:13:48;;;;;;;0.30;0.10;;;22.10;53.40;;;;;;5112292;28;20040;-65
2022/09/01 02:16:15;;;;;;;0.40;0.10;;;22.10;53.30;;;;;;5113389;28;20402;-64
2022/09/01 02:18:46;;;;;;;0.32;0.10;;;22.10;53.40;;;;;;5112332;28;20066;-64
2022/09/01 02:21:17;;;;;;;0.70;0.10;;;22.00;53.30;;;;;;5111821;28;20043;-64
2022/09/01 02:23:43;;;;;;;0.52;0.10;;;22.10;53.30;;;;;;5111934;28;20483;-64
2022/09/01 02:26:10;;;;;;;0.70;0.10;;;22.00;53.40;;;;;;5111415;28;20106;-64
2022/09/01 02:28:41;;;;;;;0.30;0.10;;;22.00;53.30;;;;;;5112099;28;20387;-64
2022/09/01 02:31:09;;;;;;;0.47;0.10;;;22.00;53.30;;;;;;5111642;28;20535;-64
2022/09/01 02:33:37;;;;;;;1.08;0.10;;;22.00;53.30;;;;;;5111939;28;20034;-64
2022/09/01 02:36:07;;;;;;;0.40;0.10;;;22.00;53.20;;;;;;5111582;28;20048;-64
2022/09/01 02:38:33;;;;;;;0.30;0.10;;;22.00;53.20;;;;;;5112930;28;20043;-64
2022/09/01 02:41:01;;;;;;;0.47;0.10;;;22.00;53.20;;;;;;5111535;28;20047;-64
2022/09/01 02:43:30;;;;;;;0.32;0.10;;;22.00;53.20;;;;;;5111577;28;20040;-66
2022/09/01 02:45:58;;;;;;;1.38;0.10;;;22.00;53.30;;;;;;5111367;28;20055;-64
2022/09/01 02:48:31;;;;;;;0.68;0.10;;;21.90;53.20;;;;;;5111739;28;20040;-64
2022/09/01 02:50:58;;;;;;;0.60;0.15;;;22.00;53.20;;;;;;5112701;27;20036;-64
2022/09/01 02:53:24;;;;;;;0.47;0.10;;;21.90;53.10;;;;;;5111438;28;20042;-64
2022/09/01 02:55:50;;;;;;;0.60;0.10;;;21.90;53.20;;;;;;5112685;28;20048;-64
2022/09/01 02:58:17;;;;;;;0.60;0.20;;;21.90;53.20;;;;;;5111295;28;20080;-64
2022/09/01 03:00:44;;;;;;;0.50;0.10;;;21.90;53.10;;;;;;5111255;28;20104;-64
2022/09/01 03:03:11;;;;;;;0.28;0.00;;;21.90;53.20;;;;;;5111335;28;20097;-64
2022/09/01 03:05:38;;;;;;;0.70;0.30;;;21.90;53.10;;;;;;5111298;28;20126;-64
2022/09/01 03:08:09;;;;;;;0.70;0.10;;;21.90;53.10;;;;;;5111239;28;20051;-64
2022/09/01 03:10:40;;;;;;;0.40;0.10;;;21.90;53.10;;;;;;5112423;28;20043;-64
2022/09/01 03:13:09;;;;;;;0.32;0.10;;;21.90;53.10;;;;;;5111411;28;20429;-64
2022/09/01 03:15:36;;;;;;;0.40;0.10;;;21.90;53.10;;;;;;5111448;28;20364;-64
2022/09/01 03:18:03;;;;;;;0.40;0.20;;;21.80;53.00;;;;;;5112323;28;20048;-64
2022/09/01 03:20:32;;;;;;;0.32;0.10;;;21.90;53.10;;;;;;5111011;28;20044;-64
2022/09/01 03:23:00;;;;;;;0.20;0.10;;;21.80;53.00;;;;;;5111258;28;20051;-66
2022/09/01 03:25:28;;;;;;;0.60;0.10;;;21.80;53.00;;;;;;5110998;28;20130;-64
2022/09/01 03:27:58;;;;;;;0.98;0.10;;;21.80;53.00;;;;;;5112247;28;20047;-64
2022/09/01 03:30:24;;;;;;;0.50;0.10;;;21.80;53.10;;;;;;5110940;28;20027;-65
2022/09/01 03:32:49;;;;;;;0.68;0.10;;;21.80;53.00;;;;;;5110818;28;20040;-64
2022/09/01 03:35:16;;;;;;;0.20;0.10;;;21.80;53.00;;;;;;5112341;28;20043;-64
2022/09/01 03:37:43;;;;;;;0.30;0.00;;;21.80;53.00;;;;;;5110848;28;20055;-64
2022/09/01 03:40:11;;;;;;;0.20;0.10;;;21.80;53.00;;;;;;5111077;28;20047;-64
2022/09/01 03:42:37;;;;;;;0.68;0.10;;;21.80;53.00;;;;;;5112097;28;20036;-64
2022/09/01 03:45:08;;;;;;;0.63;0.10;;;21.80;53.00;;;;;;5110760;28;20032;-64
2022/09/01 03:47:39;;;;;;;0.45;0.10;;;21.80;53.00;;;;;;5110971;28;20047;-64
2022/09/01 03:50:12;;;;;;;0.35;0.08;;;21.70;52.90;;;;;;5111073;28;20114;-64
2022/09/01 03:52:39;;;;;;;0.30;0.10;;;21.80;53.00;;;;;;5110893;28;20050;-64
2022/09/01 03:55:06;;;;;;;0.28;0.00;;;21.80;53.00;;;;;;5111056;28;20051;-64
2022/09/01 03:57:33;;;;;;;0.82;0.10;;;21.70;52.90;;;;;;5110926;28;20042;-64
2022/09/01 03:59:59;;;;;;;0.32;0.10;;;21.70;52.90;;;;;;5110570;28;20123;-64
2022/09/01 04:02:26;;;;;;;0.65;0.10;;;21.70;53.00;;;;;;5111922;28;20047;-64
2022/09/01 04:04:52;;;;;;;0.32;0.10;;;21.70;53.00;;;;;;5110977;28;20372;-64
2022/09/01 04:07:18;;;;;;;0.30;0.10;;;21.70;52.90;;;;;;5110638;28;20032;-64
2022/09/01 04:09:44;;;;;;;0.30;0.10;;;21.70;53.00;;;;;;5111920;28;20391;-64
2022/09/01 04:12:10;;;;;;;0.43;0.03;;;21.70;52.90;;;;;;5112595;28;20059;-64
2022/09/01 04:14:36;;;;;;;0.63;0.10;;;21.70;52.90;;;;;;5114389;28;20045;-64
2022/09/01 04:19:47;;;;;;;0.35;0.35;;;21.70;52.90;;;;;;5114380;28;20062;-64
2022/09/01 04:22:16;;;;;;;0.47;0.10;;;21.70;52.90;;;;;;5115633;28;20043;-64
2022/09/01 04:24:44;;;;;;;0.63;0.30;;;21.70;52.90;;;;;;5114348;28;20035;-64
2022/09/01 04:27:11;;;;;;;0.45;0.10;;;21.60;52.90;;;;;;5113943;28;20048;-64
2022/09/01 04:29:37;;;;;;;0.10;0.00;;;21.60;52.90;;;;;;5115400;28;20425;-64
2022/09/01 04:32:08;;;;;;;0.40;0.00;;;21.70;52.90;;;;;;5114075;28;20479;-64
2022/09/01 04:34:37;;;;;;;0.30;0.10;;;21.60;52.90;;;;;;5114310;28;20506;-64
2022/09/01 04:37:13;;;;;;;0.32;0.10;;;21.60;52.80;;;;;;5114331;28;20044;-64
2022/09/01 04:39:47;;;;;;;0.30;0.10;;;21.60;52.80;;;;;;5114045;28;20039;-64
2022/09/01 04:42:13;;;;;;;0.40;0.10;;;21.60;53.30;;;;;;5113912;28;20036;-65
2022/09/01 04:44:38;;;;;;;0.57;0.10;;;21.60;52.80;;;;;;5113755;28;20093;-64
2022/09/01 04:47:09;;;;;;;0.20;0.10;;;21.60;52.80;;;;;;5114036;28;20047;-64
2022/09/01 04:49:36;;;;;;;0.47;0.10;;;21.60;52.90;;;;;;5115037;28;20040;-64
2022/09/01 04:52:03;;;;;;;1.05;0.10;;;21.60;52.80;;;;;;5114215;28;20044;-64
2022/09/01 04:54:31;;;;;;;1.75;0.17;;;21.60;52.80;;;;;;5114948;28;20046;-64
2022/09/01 04:56:57;;;;;;;0.35;0.00;;;21.60;52.80;;;;;;5113650;28;20047;-64
2022/09/01 04:59:25;;;;;;;0.70;0.22;;;21.60;52.80;;;;;;5113406;28;20047;-64
2022/09/01 05:01:54;;;;;;;0.40;0.00;;;21.60;52.80;;;;;;5113817;28;20445;-64
2022/09/01 05:04:26;;;;;;;0.98;0.03;;;21.50;52.80;;;;;;5113694;28;20075;-64
2022/09/01 05:06:58;;;;;;;0.30;0.10;;;21.60;52.80;;;;;;5113394;28;20044;-64
2022/09/01 05:09:24;;;;;;;0.50;0.20;;;21.60;52.80;;;;;;5113424;28;20090;-64
2022/09/01 05:11:51;;;;;;;0.30;0.05;;;21.50;52.80;;;;;;5113397;28;20063;-64
2022/09/01 05:14:20;;;;;;;0.82;0.10;;;21.50;52.80;;;;;;5113282;28;20467;-64
2022/09/01 05:16:46;;;;;;;0.95;0.10;;;21.50;52.80;;;;;;5113554;28;20125;-64
2022/09/01 05:19:13;;;;;;;0.52;0.10;;;21.50;52.80;;;;;;5113645;28;20039;-66
2022/09/01 05:21:44;;;;;;;0.55;0.10;;;21.50;52.80;;;;;;5113287;28;20054;-64
2022/09/01 05:24:13;;;;;;;0.20;0.10;;;21.50;52.80;;;;;;5112967;28;20048;-64
2022/09/01 05:26:41;;;;;;;0.25;0.00;;;21.50;52.80;;;;;;5114064;28;20047;-64
2022/09/01 05:29:12;;;;;;;0.60;0.00;;;21.50;52.80;;;;;;5113293;28;20118;-64
2022/09/01 05:31:40;;;;;;;0.40;0.10;;;21.50;52.80;;;;;;5112904;28;20043;-64
2022/09/01 05:34:08;;;;;;;0.30;0.10;;;21.50;52.80;;;;;;5112312;28;20402;-63
2022/09/01 05:36:36;;;;;;;0.30;0.10;;;21.50;52.80;;;;;;5112266;28;20131;-64
2022/09/01 05:39:04;;;;;;;0.50;0.10;;;21.50;52.60;;;;;;5112115;28;20161;-64
2022/09/01 05:41:32;;;;;;;0.57;0.20;;;21.50;52.20;;;;;;5112536;28;20063;-65
2022/09/01 05:43:58;;;;;;;1.67;0.30;;;21.40;52.00;;;;;;5112187;28;20044;-65
2022/09/01 05:46:26;;;;;;;1.92;0.10;;;21.30;51.80;;;;;;5112604;28;20031;-64
2022/09/01 05:48:53;;;;;;;1.08;0.20;;;21.30;51.90;;;;;;5109535;28;20047;-65
2022/09/01 05:51:22;;;;;;;8.27;0.40;;;21.30;51.90;;;;;;5108792;28;20043;-71
2022/09/01 05:53:50;;;;;;;1.95;0.17;;;21.20;51.80;;;;;;5109731;28;20036;-65
2022/09/01 05:56:18;;;;;;;2.38;0.30;;;21.20;51.80;;;;;;5110898;28;20259;-64
2022/09/01 05:58:46;;;;;;;1.55;0.22;;;21.20;51.80;;;;;;5105695;28;20486;-65
2022/09/01 06:01:32;;;;;;;1.33;0.20;;;21.10;51.80;;;;;;5108096;28;20390;-65
2022/09/01 06:04:02;;;;;;;1.52;0.20;;;21.10;51.90;;;;;;5093249;28;20074;-64
2022/09/01 06:06:34;;;;;;;;;;;21.10;52.10;;;;;;5097402;28;20092;-65
2022/09/01 06:09:00;;;;;;;0.80;0.20;;;21.10;52.10;;;;;;5099538;27;20371;-64
2022/09/01 06:11:27;;;;;;;0.95;0.10;;;21.10;52.10;;;;;;5095351;28;20490;-65
2022/09/01 06:13:54;;;;;;;0.90;0.17;;;21.00;52.00;;;;;;5095769;28;20800;-65
2022/09/01 06:16:20;;;;;;;1.35;0.20;;;21.10;52.00;;;;;;5101671;27;20041;-71
2022/09/01 06:18:46;;;;;;;3.47;0.20;;;21.20;52.10;;;;;;5087713;28;20043;-65
2022/09/01 06:21:13;;;;;;;1.48;0.10;;;21.20;52.20;;;;;;5100498;27;20604;-63
2022/09/01 06:23:41;;;;;;;2.38;0.20;;;21.30;52.60;;;;;;5090353;27;20046;-64
2022/09/01 06:26:16;;;;;;;0.82;0.10;;;21.30;52.50;;;;;;5081928;28;20115;-64
2022/09/01 06:28:42;;;;;;;1.95;0.30;;;21.40;52.50;;;;;;5086345;27;20051;-63
2022/09/01 06:31:08;;;;;;;1.33;0.10;;;21.40;52.40;;;;;;5090259;28;20032;-64
2022/09/01 06:33:34;;;;;;;2.00;0.45;;;21.50;52.50;;;;;;5088880;28;20039;-64
2022/09/01 06:36:02;;;;;;;1.90;0.20;;;21.50;52.50;;;;;;5093236;28;20380;-64
2022/09/01 06:38:29;;;;;;;3.47;0.20;;;21.50;52.50;;;;;;5094695;28;20105;-64
2022/09/01 06:41:02;;;;;;;0.28;0.10;;;21.50;52.50;;;;;;5086832;27;20046;-64
2022/09/01 06:43:29;;;;;;;0.82;0.10;;;21.50;52.40;;;;;;5091540;28;20044;-64
2022/09/01 06:45:56;;;;;;;1.50;0.20;;;21.50;52.40;;;;;;5111051;27;20051;-64
2022/09/01 06:48:22;;;;;;;0.65;0.20;;;21.50;52.50;;;;;;5089486;27;20044;-65
2022/09/01 06:50:48;;;;;;;3.33;0.10;;;21.50;52.60;;;;;;5089450;28;20085;-70
2022/09/01 06:53:17;;;;;;;1.45;0.20;;;21.50;52.70;;;;;;5092148;28;20115;-66
2022/09/01 06:55:47;;;;;;;2.80;0.80;;;21.50;53.00;;;;;;5093919;27;20085;-64
2022/09/01 06:58:14;;;;;;;0.75;0.20;;;21.60;53.30;;;;;;5095018;27;20046;-63
2022/09/01 07:00:41;;;;;;;3.95;0.20;;;21.50;53.40;;;;;;5089539;28;20047;-64
2022/09/01 07:03:10;;;;;;;2.45;0.20;;;21.50;53.40;;;;;;5086601;28;20177;-63
2022/09/01 07:05:45;;;;;;;2.15;0.20;;;21.60;53.40;;;;;;5092034;28;20040;-64
2022/09/01 07:08:18;;;;;;;2.20;0.20;;;21.60;53.50;;;;;;5097079;28;20048;-68
2022/09/01 07:10:48;;;;;;;0.60;0.10;;;21.60;53.60;;;;;;5093438;28;20050;-66
2022/09/01 07:13:18;;;;;;;;;;;21.70;53.70;;;;;;5091640;28;20035;-67
2022/09/01 07:15:48;;;;;;;1.60;0.20;;;21.70;54.10;;;;;;5110039;27;20372;-67
2022/09/01 07:18:16;;;;;;;1.38;0.10;;;21.60;53.70;;;;;;5092790;28;20036;-64
2022/09/01 07:20:43;;;;;;;3.13;0.20;;;21.60;54.70;;;;;;5106200;27;20043;-65
2022/09/01 07:23:10;;;;;;;1.80;0.20;;;21.70;54.10;;;;;;5092700;28;20070;-65
2022/09/01 07:25:42;;;;;;;2.85;0.20;;;21.70;54.20;;;;;;5091822;28;20472;-64
2022/09/01 07:28:08;;;;;;;3.08;0.10;;;21.70;54.20;;;;;;5100094;28;20048;-64
2022/09/01 07:30:42;;;;;;;2.13;0.20;;;21.70;54.20;;;;;;5095683;28;20042;-64
2022/09/01 07:33:10;;;;;;;2.20;0.20;;;21.70;54.20;;;;;;5091591;28;20069;-64
2022/09/01 07:35:37;;;;;;;2.42;0.22;;;21.70;54.20;;;;;;5094655;28;20114;-67
2022/09/01 07:38:05;;;;;;;2.10;0.20;;;21.80;54.30;;;;;;5093969;28;20122;-67
2022/09/01 07:40:31;;;;;;;2.17;0.20;;;21.80;54.40;;;;;;5088239;28;20130;-66
2022/09/01 07:42:56;;;;;;;0.77;0.35;;;21.80;54.50;;;;;;5088227;28;20107;-67
2022/09/01 07:45:24;;;;;;;1.92;0.20;;;21.80;54.60;;;;;;5087587;28;20055;-67
2022/09/01 07:47:50;;;;;;;3.80;0.57;;;21.80;54.70;;;;;;5091986;28;20111;-65
2022/09/01 07:50:17;;;;;;;2.97;0.10;;;21.80;54.80;;;;;;5101705;28;20932;-66
2022/09/01 07:52:43;;;;;;;1.77;0.30;;;21.80;54.80;;;;;;5094539;28;20552;-65
2022/09/01 07:57:47;;;;;;;1.10;0.10;;;21.80;54.70;;;;;;5060622;27;20441;-66
2022/09/01 08:00:14;;;;;;;3.47;0.20;;;21.80;54.40;;;;;;5036760;28;20037;-65
2022/09/01 08:02:43;;;;;;;1.20;0.20;;;21.80;54.30;;;;;;5033453;28;20096;-64
2022/09/01 08:05:16;;;;;;;1.67;0.10;;;21.80;54.30;;;;;;5035392;28;20033;-64
2022/09/01 08:07:43;;;;;;;1.27;0.30;;;21.80;54.30;;;;;;5046456;28;20063;-64
2022/09/01 08:10:09;;;;;;;3.30;0.43;;;21.80;54.30;;;;;;5037204;28;20041;-64
2022/09/01 08:12:36;;;;;;;3.42;0.20;;;21.80;54.20;;;;;;5052166;28;20544;-64
2022/09/01 08:15:04;;;;;;;0.75;0.28;;;21.80;54.20;;;;;;5045722;28;20037;-64
2022/09/01 08:17:29;;;;;;;1.48;0.10;;;21.80;54.10;;;;;;5036977;28;20044;-62
2022/09/01 08:19:55;;;;;;;1.80;0.20;;;21.80;54.00;;;;;;5034462;28;20045;-66
2022/09/01 08:22:22;;;;;;;8.27;0.43;;;21.80;54.00;;;;;;5035191;28;20108;-66
2022/09/01 08:24:49;;;;;;;1.02;0.15;;;21.80;54.20;;;;;;5033866;28;20502;-66
2022/09/01 08:27:14;;;;;;;2.58;0.45;;;21.80;54.30;;;;;;5052244;28;20455;-65
2022/09/01 08:29:41;;;;;;;2.33;0.30;;;21.90;54.50;;;;;;5033197;28;20034;-66
2022/09/01 08:32:06;;;;;;;0.85;0.10;;;21.90;54.60;;;;;;5026218;28;20038;-63
2022/09/01 08:34:33;;;;;;;1.73;0.17;;;21.80;54.60;;;;;;5033531;28;20160;-62
2022/09/01 08:36:59;;;;;;;2.78;0.20;;;21.90;54.80;;;;;;5036140;28;20046;-61
2022/09/01 08:39:25;;;;;;;2.17;0.10;;;21.90;54.90;;;;;;5033984;28;20041;-62
2022/09/01 08:47:15;;;;;;;3.05;0.20;;;21.90;54.70;;;;;;5069393;27;20431;-62
2022/09/01 08:49:44;;;;;;;3.60;0.73;;;22.00;54.70;;;;;;5045892;28;20060;-63
2022/09/01 08:52:36;;;;;;;3.20;0.10;;;22.00;54.70;;;;;;5050057;28;20822;-62
2022/09/01 08:55:26;;;;;;;5.57;0.20;;;22.10;55.60;;;;;;5053368;28;20048;-63
2022/09/01 08:57:56;;;;;;;3.50;0.28;;;22.10;55.90;;;;;;5056692;28;20049;-70
2022/09/01 09:00:25;;;;;;;6.57;0.57;;;22.10;55.70;;;;;;5052183;28;20071;-71
2022/09/01 09:11:20;;;;;;;3.05;0.30;;;22.10;55.70;;;;;;5047761;27;20409;-69
2022/09/01 09:14:26;;;;;;;5.70;0.43;;;22.20;56.10;;;;;;5049914;28;20946;-70
2022/09/01 09:16:53;;;;;;;3.00;0.45;;;22.20;56.10;;;;;;5058906;28;20040;-69
2022/09/01 09:22:06;;;;;;;4.00;0.22;;;22.20;55.80;;;;;;5096119;27;20427;-66
2022/09/01 09:27:21;;;;;;;3.55;0.30;;;22.20;55.60;;;;;;5106210;27;20498;-67
2022/09/01 09:29:51;;;;;;;1.65;0.20;;;22.20;55.40;;;;;;5105824;27;20070;-66
2022/09/01 09:32:17;;;;;;;2.28;0.20;;;22.20;55.40;;;;;;5103787;27;21537;-66
2022/09/01 09:34:43;;;;;;;1.73;0.20;;;22.30;55.30;;;;;;5122970;27;20062;-67
2022/09/01 09:37:29;;;;;;;3.65;0.20;;;22.30;55.10;;;;;;5103996;27;20032;-67
2022/09/01 09:40:17;;;;;;;1.42;0.25;;;22.30;55.30;;;;;;5110753;27;20057;-67
2022/09/01 09:43:02;;;;;;;1.38;0.10;;;22.40;55.60;;;;;;5110420;27;20101;-71
2022/09/01 09:48:30;;;;;;;2.63;0.40;;;22.50;55.40;;;;;;5102833;27;20400;-67
2022/09/01 09:51:16;;;;;;;2.55;0.50;;;22.50;55.30;;;;;;5109835;27;20048;-68
2022/09/01 09:53:41;;;;;;;2.53;0.20;;;22.60;55.10;;;;;;5099457;28;20419;-69
2022/09/01 09:56:21;;;;;;;1.17;0.15;;;22.70;55.00;;;;;;5101378;28;20035;-71
2022/09/01 09:58:48;;;;;;;5.45;0.22;;;22.70;54.90;;;;;;5101942;28;20043;-68
2022/09/01 10:04:02;;;;;;;1.88;0.20;;;22.70;54.80;;;;;;5072999;27;20602;-71
2022/09/01 10:06:40;;;;;;;6.38;0.20;;;22.80;54.60;;;;;;5042772;28;20864;-68
2022/09/01 10:12:04;;;;;;;3.95;0.77;;;22.90;54.30;;;;;;5108503;27;1194699;-68
2022/09/01 10:14:41;;;;;;;1.42;0.20;;;22.90;54.20;;;;;;5107073;27;20052;-71
2022/09/01 10:17:14;;;;;;;2.22;0.10;;;22.90;54.10;;;;;;5141928;27;20035;-69
2022/09/01 10:19:46;;;;;;;3.50;0.20;;;23.00;53.90;;;;;;5122937;27;20079;-67
2022/09/01 10:22:13;;;;;;;1.77;0.30;;;23.00;53.80;;;;;;5124877;27;20039;-65
2022/09/01 10:24:39;;;;;;;2.08;0.17;;;23.00;53.60;;;;;;5128246;27;20054;-66
2022/09/01 10:27:15;;;;;;;1.75;0.10;;;23.00;53.00;;;;;;5120227;27;20046;-66
2022/09/01 10:29:46;;;;;;;2.33;0.20;;;23.00;52.80;;;;;;5119608;27;20048;-69
2022/09/01 10:32:18;;;;;;;0.52;0.10;;;23.00;52.70;;;;;;5138606;27;20418;-66
2022/09/01 10:34:46;;;;;;;0.40;0.10;;;23.00;52.40;;;;;;5120018;27;20042;-65
2022/09/01 10:37:13;;;;;;;2.20;0.10;;;22.90;52.30;;;;;;5137933;27;20034;-65
2022/09/01 10:42:56;;;;;;;2.33;0.10;;;22.90;52.70;;;;;;5089312;27;20439;-66
2022/09/01 10:45:39;;;;;;;2.97;0.10;;;22.90;51.70;;;;;;5066833;28;20121;-69
2022/09/01 10:53:56;;;;;;;2.83;0.20;;;23.00;51.30;;;;;;5063324;28;20478;-68
2022/09/01 10:56:36;;;;;;;2.40;0.10;;;23.10;52.20;;;;;;5075305;28;20048;-69
2022/09/01 11:07:34;;;;;;;2.78;0.10;;;23.10;51.60;;;;;;5109034;27;20454;-66
2022/09/01 11:10:24;;;;;;;1.63;0.10;;;23.10;51.20;;;;;;5108341;28;20051;-66
2022/09/01 11:15:50;;;;;;;1.05;0.10;;;23.20;51.10;;;;;;5069411;27;20466;-69
2022/09/01 11:18:26;;;;;;;0.70;0.10;;;23.20;50.90;;;;;;5068912;28;20496;-68
2022/09/01 11:20:52;;;;;;;0.65;0.10;;;23.20;51.10;;;;;;5061162;28;20048;-68
2022/09/01 11:23:25;;;;;;;1.25;0.20;;;23.20;51.80;;;;;;5063775;28;20084;-68
2022/09/01 11:31:17;;;;;;;2.15;0.10;;;23.20;51.20;;;;;;5109794;27;20428;-67
2022/09/01 11:34:09;;;;;;;1.75;0.10;;;23.20;50.80;;;;;;5100044;28;20414;-68
2022/09/01 11:53:04;;;;;;;1.13;0.10;;;23.20;50.80;;;;;;5089979;27;20402;-65
2022/09/01 11:55:33;;;;;;;1.27;0.20;;;23.30;50.70;;;;;;5085047;28;20048;-65
2022/09/01 11:57:59;;;;;;;2.10;0.15;;;23.30;50.50;;;;;;5071094;28;20040;-64
2022/09/01 12:00:29;;;;;;;0.47;0.10;;;23.30;50.50;;;;;;5075464;28;20032;-64
2022/09/01 12:02:55;;;;;;;0.57;0.13;;;23.30;50.50;;;;;;5084906;28;20396;-66
2022/09/01 12:05:33;;;;;;;1.73;0.10;;;23.30;50.40;;;;;;5072893;28;20403;-67
2022/09/01 12:08:04;;;;;;;3.75;0.10;;;23.30;50.50;;;;;;5073116;28;20041;-65
2022/09/01 12:15:54;;;;;;;2.08;0.20;;;23.30;50.90;;;;;;5073775;27;20477;-66
2022/09/01 12:18:26;;;;;;;1.85;0.10;;;23.30;50.60;;;;;;5036708;28;20052;-69
2022/09/01 12:20:56;;;;;;;5.28;0.40;;;23.30;50.80;;;;;;5070018;28;20082;-69
2022/09/01 12:26:13;;;;;;;2.28;0.10;;;23.40;51.00;;;;;;5043521;27;20406;-70
2022/09/01 12:28:40;;;;;;;1.77;0.35;;;23.40;51.40;;;;;;5023268;28;20037;-68
2022/09/01 12:31:12;;;;;;;2.55;0.25;;;23.40;51.30;;;;;;5023460;28;20044;-68
2022/09/01 12:33:40;;;;;;;2.10;0.30;;;23.40;51.20;;;;;;5029293;28;20096;-68
2022/09/01 12:38:56;;;;;;;1.92;0.10;;;23.40;51.50;;;;;;5088428;27;20117;-69
2022/09/01 12:41:24;;;;;;;2.35;0.10;;;23.40;51.50;;;;;;5095970;28;20577;-67
2022/09/01 12:43:50;;;;;;;2.25;0.10;;;23.40;51.50;;;;;;5087827;28;20048;-69
2022/09/01 12:46:44;;;;;;;1.75;0.20;;;23.40;51.40;;;;;;5083559;28;20064;-68
2022/09/01 12:49:19;;;;;;;1.40;0.10;;;23.40;51.00;;;;;;5100127;28;20047;-67
2022/09/01 12:51:47;;;;;;;2.63;0.20;;;23.40;50.80;;;;;;5088698;28;20127;-69
2022/09/01 12:54:14;;;;;;;3.13;0.20;;;23.40;50.80;;;;;;5085316;28;20453;-67
2022/09/01 12:56:46;;;;;;;2.72;0.20;;;23.40;50.60;;;;;;5082579;28;20115;-67
2022/09/01 12:59:19;;;;;;;2.42;0.13;;;23.40;50.30;;;;;;5089927;28;20467;-68
2022/09/01 13:01:45;;;;;;;1.88;0.20;;;23.30;50.30;;;;;;5084809;28;20035;-67
2022/09/01 13:07:00;;;;;;;3.05;0.10;;;23.40;50.40;;;;;;5100207;27;20471;-66
2022/09/01 13:09:25;;;;;;;2.47;0.15;;;23.40;50.30;;;;;;5070823;28;20048;-66
2022/09/01 13:11:51;;;;;;;1.33;0.10;;;23.40;50.10;;;;;;5085399;28;20041;-64
2022/09/01 13:14:17;;;;;;;2.80;0.22;;;23.40;49.90;;;;;;5072605;28;20044;-67
2022/09/01 13:16:44;;;;;;;1.05;0.08;;;23.40;49.70;;;;;;5078467;28;20123;-65
2022/09/01 13:19:10;;;;;;;1.33;0.20;;;23.40;49.40;;;;;;5105719;27;20534;-66
2022/09/01 13:21:36;;;;;;;3.83;0.20;;;23.40;49.50;;;;;;5075375;28;20046;-65
2022/09/01 13:24:05;;;;;;;4.43;0.10;;;23.40;49.30;;;;;;5076916;28;20029;-66
2022/09/01 13:26:31;;;;;;;0.52;0.10;;;23.40;48.80;;;;;;5077063;28;20438;-66
2022/09/01 13:28:58;;;;;;;2.80;0.10;;;23.40;48.60;;;;;;5073137;28;20848;-67
2022/09/01 13:31:24;;;;;;;1.73;0.10;;;23.30;48.00;;;;;;5089202;28;20492;-67
2022/09/01 13:33:50;;;;;;;5.25;0.10;;;23.30;48.00;;;;;;5106098;27;20059;-67
2022/09/01 13:36:15;;;;;;;3.97;0.10;;;23.30;47.90;;;;;;5104315;27;20135;-65
2022/09/01 13:38:41;;;;;;;3.45;0.10;;;23.40;48.60;;;;;;5075192;28;20051;-66
2022/09/01 13:41:09;;;;;;;3.10;0.10;;;23.40;48.80;;;;;;5073671;28;20468;-69
2022/09/01 13:43:35;;;;;;;1.70;0.10;;;23.40;48.90;;;;;;5106098;28;20040;-66
2022/09/01 13:46:01;;;;;;;1.52;0.47;;;23.40;49.10;;;;;;5089604;28;20040;-66
2022/09/01 13:48:27;;;;;;;2.42;0.10;;;23.50;49.00;;;;;;5078564;28;20127;-68
2022/09/01 13:50:54;;;;;;;3.35;0.10;;;23.50;48.90;;;;;;5077388;28;20043;-67
2022/09/01 13:53:21;;;;;;;4.80;0.20;;;23.50;48.70;;;;;;5077349;28;20028;-67
2022/09/01 13:55:48;;;;;;;1.98;0.10;;;23.60;48.60;;;;;;5078331;28;20128;-70
2022/09/01 13:58:14;;;;;;;3.20;0.20;;;23.60;48.40;;;;;;5079854;28;20044;-69
2022/09/01 14:00:43;;;;;;;2.30;0.10;;;23.60;47.70;;;;;;5080145;28;20472;-70
2022/09/01 14:03:12;;;;;;;1.95;0.10;;;23.50;47.40;;;;;;5079795;28;20089;-71
2022/09/01 14:05:41;;;;;;;3.50;0.10;;;23.50;47.30;;;;;;5110153;28;20056;-73
2022/09/01 14:08:09;;;;;;;3.80;0.20;;;23.50;47.60;;;;;;5093477;28;20039;-70
2022/09/01 14:10:40;;;;;;;1.02;0.10;;;23.60;47.90;;;;;;5079091;28;20042;-66
2022/09/01 14:13:06;;;;;;;2.40;0.30;;;23.60;47.90;;;;;;5078287;28;20088;-67
2022/09/01 14:15:33;;;;;;;1.70;0.20;;;23.60;47.80;;;;;;5112242;28;20528;-65
2022/09/01 14:17:59;;;;;;;1.45;0.10;;;23.70;47.80;;;;;;5067944;28;20036;-66
2022/09/01 14:20:38;;;;;;;3.28;0.20;;;23.70;47.50;;;;;;5067271;28;20048;-69
2022/09/01 14:23:05;;;;;;;1.30;0.10;;;23.70;46.90;;;;;;5058951;28;20048;-67
2022/09/01 14:25:32;;;;;;;3.10;0.10;;;23.70;47.10;;;;;;5093661;28;20052;-67
2022/09/01 14:27:59;;;;;;;1.05;0.10;;;23.70;47.30;;;;;;5059897;28;20040;-65
2022/09/01 14:30:27;;;;;;;4.95;0.20;;;23.70;47.30;;;;;;5093309;28;20062;-68